Messwerte Selfridge Air National Guard Base

Temperatur

Temperatur
°C
1574323200 3.00 3.00 3
1574326800 4.00 4.00 4
1574330400 5.00 5.00 5
1574334000 6.00 6.00 4
1574337600 7.00 7.00 4
1574341200 8.00 8.00
1574344800 9.00 9.00 5
1574348400 10.00 10.00 5
1574352000 11.00 11.00 5
1574355600 12.00 12.00 5
1574359200 13.00 13.00 6
1574362800 14.00 14.00 6
1574366400 15.00 15.00 7
1574370000 16.00 16.00 8
1574373600 17.00 17.00 8
1574377200 18.00 18.00 9
1574380800 19.00 19.00 10
1574384400 20.00 20.00 11
1574388000 21.00 21.00 11
1574391600 22.00 22.00 10
1574395200 23.00 23.00 9
1574398800 0.00 0.00
1574402400 1.00 1.00 7
1574406000 2.00 2.00 5

Aktuellste Messwerte

Wettercharakter
Wetter: bedeckt, wenig Regen
Temperatur
5 °C
Feuchtigkeit
100 %
Wind
25 km/hWindrichtung: West
Böen
40 km/h
Luftdruck
1010 hPa
Messzeit: 22. November 2019, 2.00Datenquelle: METAR

Weitere Messstationen in der Nähe

Messstation Temperatur Entfernung
Troy 4 °C 30 km
Detroit 6 °C 31 km
Windsor 6 °C 39 km
Port Huron 5 °C 41 km
Pontiac-oakland 3 °C 48 km
Detroit 6 °C 59 km
Sarnia 5 °C 60 km

Wind

Windrichtung Böen Mittelwind
° km/h km/h
1574323200 3.00 2.00 - 3.00 150° 15
1574326800 4.00 3.00 - 4.00 160° 15
1574330400 5.00 4.00 - 5.00 160° 20
1574334000 6.00 5.00 - 6.00 160° 20
1574337600 7.00 6.00 - 7.00 160° 25
1574341200 8.00 7.00 - 8.00
1574344800 9.00 8.00 - 9.00 170° 20
1574348400 10.00 9.00 - 10.00 190° 20
1574352000 11.00 10.00 - 11.00 170° 20
1574355600 12.00 11.00 - 12.00 150° 20
1574359200 13.00 12.00 - 13.00 160° 20
1574362800 14.00 13.00 - 14.00 160° 25
1574366400 15.00 14.00 - 15.00 160° 40 25
1574370000 16.00 15.00 - 16.00 190° 35 25
1574373600 17.00 16.00 - 17.00 180° 35 30
1574377200 18.00 17.00 - 18.00 190° 20
1574380800 19.00 18.00 - 19.00 200° 20
1574384400 20.00 19.00 - 20.00 210° 40 25
1574388000 21.00 20.00 - 21.00 220° 20
1574391600 22.00 21.00 - 22.00 250° 50 35
1574395200 23.00 22.00 - 23.00 250° 45 30
1574398800 0.00 23.00 - 0.00
1574402400 1.00 0.00 - 1.00 270° 40 25
1574406000 2.00 1.00 - 2.00 290° 40 25

Ihre Wetterstation

Fehlt Ihre Wetterstation auf unserem Portal?

Schreiben Sie an network@meteonews.ch

Klima

Wann ist es am wärmsten? Wann regnet es am wenigsten? Unsere Klimadaten geben Auskunft.